createdAt,value
2022-11-28T00:04:37.720Z,1.3
2022-11-28T00:09:38.233Z,1.7
2022-11-28T00:14:37.471Z,1.7
2022-11-28T00:19:37.652Z,1.5
2022-11-28T00:24:37.913Z,1.5
2022-11-28T00:29:38.363Z,1.4
2022-11-28T00:34:37.758Z,1.4
2022-11-28T00:39:38.013Z,1.7
2022-11-28T00:44:38.302Z,1.7
2022-11-28T00:49:37.507Z,2.2
2022-11-28T00:54:38.120Z,2.2
2022-11-28T00:59:37.539Z,1.8
2022-11-28T01:04:38.275Z,1.8
2022-11-28T01:09:37.610Z,2.2
2022-11-28T01:14:37.908Z,2.2
2022-11-28T01:19:38.275Z,1.9
2022-11-28T01:24:37.572Z,1.9
2022-11-28T01:29:37.702Z,1.9
2022-11-28T01:34:38.035Z,1.9
2022-11-28T01:39:38.371Z,2.2
2022-11-28T01:44:37.730Z,2.2
2022-11-28T01:49:38.109Z,2.2
2022-11-28T01:54:38.684Z,2.2
2022-11-28T01:59:38.024Z,1.8
2022-11-28T02:04:38.355Z,1.8
2022-11-28T02:09:37.774Z,1.3
2022-11-28T02:14:37.963Z,1.3
2022-11-28T02:19:38.239Z,1.3
2022-11-28T02:24:38.430Z,1.3
2022-11-28T02:29:37.848Z,1.3
2022-11-28T02:34:38.185Z,1.3
2022-11-28T02:39:38.405Z,1.3
2022-11-28T02:44:37.837Z,1.3
2022-11-28T02:49:37.669Z,1.3
2022-11-28T02:54:38.195Z,1.3
2022-11-28T02:59:38.005Z,1.3
2022-11-28T03:04:38.094Z,1.3
2022-11-28T08:29:38.816Z,1.3
2022-11-28T08:34:38.400Z,1.3
2022-11-28T08:39:37.832Z,1.8
2022-11-28T08:44:38.230Z,1.8
2022-11-28T08:49:38.646Z,1.7
2022-11-28T08:54:38.803Z,1.7
2022-11-28T08:59:39.099Z,1.3
2022-11-28T09:04:38.088Z,1.3
2022-11-28T09:09:37.966Z,1.5
2022-11-28T09:14:38.519Z,1.5
2022-11-28T09:19:37.991Z,1.6
2022-11-28T09:24:38.397Z,1.6
2022-11-28T09:29:38.476Z,1.7
2022-11-28T09:34:38.468Z,1.7
2022-11-28T09:40:13.595Z,1.3
2022-11-28T09:44:38.180Z,1.3
2022-11-28T09:49:41.554Z,1.3
2022-11-28T09:54:38.067Z,1.3
2022-11-28T09:59:38.462Z,1.8
2022-11-28T10:04:38.739Z,1.8
2022-11-28T10:09:38.054Z,1.3
2022-11-28T10:14:38.283Z,1.3
2022-11-28T10:19:55.179Z,1.3
2022-11-28T10:24:38.551Z,1.3
2022-11-28T10:29:37.863Z,1.3
2022-11-28T10:34:38.291Z,1.3
2022-11-28T10:39:38.599Z,1.3
2022-11-28T10:44:37.835Z,1.3
2022-11-28T10:49:38.563Z,1.4
2022-11-28T10:54:37.871Z,1.4
2022-11-28T10:59:38.035Z,1.8
2022-11-28T11:04:39.009Z,1.8
2022-11-28T11:09:39.060Z,1.8
2022-11-28T11:14:38.362Z,1.8
2022-11-28T11:19:38.811Z,1.9
2022-11-28T11:24:38.180Z,1.9
2022-11-28T11:29:38.539Z,2.2
2022-11-28T11:34:38.773Z,2.2
2022-11-28T11:39:38.517Z,2.2
2022-11-28T11:44:38.914Z,2.2
2022-11-28T11:49:38.149Z,1.4
2022-11-28T11:54:38.637Z,1.4
2022-11-28T11:59:38.289Z,1.8
2022-11-28T12:04:50.041Z,1.8
2022-11-28T12:09:38.197Z,1.7
2022-11-28T12:14:38.403Z,1.7
2022-11-28T12:19:38.663Z,1.9
2022-11-28T12:24:38.957Z,1.9
2022-11-28T12:29:38.165Z,1.8
2022-11-28T12:34:38.705Z,1.8
2022-11-28T12:39:38.308Z,1.5
2022-11-28T12:44:38.677Z,1.5
2022-11-28T12:49:38.090Z,1.3
2022-11-28T12:54:38.388Z,1.3
2022-11-28T12:59:38.846Z,1.3
2022-11-28T13:04:38.144Z,1.3
2022-11-28T13:09:38.094Z,1.3
2022-11-28T13:14:38.527Z,1.3
2022-11-28T13:19:38.641Z,1.4
2022-11-28T13:24:38.837Z,1.4
2022-11-28T13:29:38.107Z,1.7
2022-11-28T13:34:38.552Z,1.7
2022-11-28T13:39:38.784Z,1.8
2022-11-28T13:44:38.192Z,1.8
2022-11-28T13:49:38.311Z,1.8
2022-11-28T13:54:38.732Z,1.8
2022-11-28T13:59:38.078Z,1.6
2022-11-28T14:04:39.080Z,1.6
2022-11-28T14:09:38.415Z,1.5
2022-11-28T14:14:38.736Z,1.5
2022-11-28T14:19:38.117Z,0.9
2022-11-28T14:24:38.468Z,0.9
2022-11-28T14:29:38.786Z,1.4
2022-11-28T14:34:38.050Z,1.4
2022-11-28T14:39:38.551Z,1.8
2022-11-28T14:44:38.071Z,1.8
2022-11-28T14:49:38.094Z,1.9
2022-11-28T14:54:38.731Z,1.9
2022-11-28T14:59:38.435Z,1.9
2022-11-28T15:04:38.254Z,1.9
2022-11-28T15:09:38.724Z,1.3
2022-11-28T15:14:38.246Z,1.3
2022-11-28T15:19:38.260Z,1.3
2022-11-28T15:24:38.500Z,1.3
2022-11-28T15:29:38.848Z,1.3
2022-11-28T15:34:38.512Z,1.3
2022-11-28T15:39:38.460Z,1.1
2022-11-28T15:44:38.151Z,1.1
2022-11-28T15:49:38.350Z,1
2022-11-28T15:54:38.837Z,1
2022-11-28T15:59:38.949Z,1.3
2022-11-28T16:04:38.666Z,1.3
2022-11-28T16:09:38.208Z,1.2
2022-11-28T16:14:38.769Z,1.2
2022-11-28T16:19:38.987Z,1.3
2022-11-28T16:24:39.176Z,1.3
2022-11-28T16:29:38.608Z,0.9
2022-11-28T16:34:39.014Z,0.9
2022-11-28T16:39:38.466Z,1.2
2022-11-28T16:44:38.242Z,1.2
2022-11-28T16:49:38.760Z,1.2
2022-11-28T16:54:38.137Z,1.2
2022-11-28T16:59:38.353Z,1.2
2022-11-28T17:04:38.832Z,1.2
2022-11-28T17:09:38.865Z,1.2
2022-11-28T17:14:38.342Z,1.2
2022-11-28T17:19:38.655Z,0.9
2022-11-28T17:24:38.927Z,0.9
2022-11-28T17:29:38.196Z,0.8
2022-11-28T17:34:38.487Z,0.8
2022-11-28T17:39:38.123Z,0.5
2022-11-28T17:44:38.595Z,0.5
2022-11-28T17:49:46.665Z,0.9
2022-11-28T17:54:38.865Z,0.9
2022-11-28T17:59:38.190Z,0.9
2022-11-28T18:04:38.530Z,0.9
2022-11-28T18:09:38.960Z,0.9
2022-11-28T18:14:40.090Z,0.9
2022-11-28T18:19:38.416Z,0.9
2022-11-28T18:24:38.820Z,0.9
2022-11-28T18:29:38.127Z,0.9
2022-11-28T18:34:38.310Z,0.9
2022-11-28T18:39:38.588Z,1.3
2022-11-28T18:44:38.876Z,1.3
2022-11-28T18:49:39.185Z,1
2022-11-28T18:54:38.454Z,1
2022-11-28T18:59:38.667Z,1.3
2022-11-28T19:04:39.147Z,1.3
2022-11-28T19:09:38.400Z,0.9
2022-11-28T19:14:38.539Z,0.9
2022-11-28T19:19:38.698Z,1
2022-11-28T19:24:38.893Z,1
2022-11-28T19:29:39.089Z,1.2
2022-11-28T19:34:38.265Z,1.2
2022-11-28T19:39:38.449Z,0.9
2022-11-28T19:44:38.713Z,0.9
2022-11-28T19:49:38.974Z,0.9
2022-11-28T19:54:38.410Z,0.9
2022-11-28T19:59:38.709Z,1.3
2022-11-28T20:04:38.898Z,1.3
2022-11-28T20:09:39.202Z,1.2
2022-11-28T20:14:38.449Z,1.2
2022-11-28T20:19:38.710Z,1
2022-11-28T20:24:39.134Z,1
2022-11-28T20:29:38.499Z,0.9
2022-11-28T20:34:38.741Z,0.9
2022-11-28T20:39:39.137Z,0.9
2022-11-28T20:44:38.346Z,0.9
2022-11-28T20:49:38.911Z,0.9
2022-11-28T20:54:38.674Z,0.9
2022-11-28T20:59:39.135Z,0.9
2022-11-28T21:04:38.454Z,0.9
2022-11-28T21:09:39.029Z,0.9
2022-11-28T21:14:38.686Z,0.9
2022-11-28T21:19:39.048Z,0.9
2022-11-28T21:24:39.130Z,0.9
2022-11-28T21:29:39.140Z,0.7
2022-11-28T21:34:38.334Z,0.7
2022-11-28T21:39:38.684Z,0.9
2022-11-28T21:44:39.010Z,0.9
2022-11-28T21:49:38.520Z,1
2022-11-28T21:54:38.970Z,1
2022-11-28T21:59:39.170Z,1.3
2022-11-28T22:05:18.243Z,1.3
2022-11-28T22:09:38.504Z,0.9
2022-11-28T22:14:38.786Z,0.9
2022-11-28T22:19:39.050Z,0.9
2022-11-28T22:24:38.927Z,0.9
2022-11-28T22:29:39.178Z,0.9
2022-11-28T22:34:40.490Z,0.9
2022-11-28T22:39:38.820Z,0.9
2022-11-28T22:44:38.951Z,0.9
2022-11-28T22:49:39.130Z,0.9
2022-11-28T22:54:38.445Z,0.9
2022-11-28T22:59:38.696Z,0.9
2022-11-28T23:04:39.191Z,0.9
2022-11-28T23:09:38.709Z,0.9
2022-11-28T23:14:38.376Z,0.9
